Weather at Liberec Airport

Public forecast

Using degrees Celsius for public forecast. Weather courtesy of forecast.io.

Closest aviation weather report (METAR) to Liberec Airport

Report is more than 2 hours old.

Closest report is Kbely Air Base, 43.0 nm (79.6 km) SSW.

2024/06/24 21:00 (retrieved 5 hours ago)

LKKB 242100Z 07004KT CAVOK 19/11 Q1019

Closest aviation forecast (TAF) to Liberec Airport

Forecast is more than 6 hours old.

Closest forecast is Kbely Air Base, 43.0 nm (79.6 km) SSW.

2024/06/24 18:00 (retrieved 8 hours ago)

TAF LKCV 241700Z 2418/2518 09005KT CAVOK TAF LKKB 241700Z 2418/2518 08006KT CAVOK